Terminal Aerodrome Forecast
Issued by NWS

Home | Current Version | Previous Version | Text Only | Print | Product List | Glossary On
Versions: 1 2 3 4 5 6 7 8 9 10 11 12 13 14 15 16 17
933
FTPA31 PHFO 221720
TAFHLI
TAF
PHLI 221720Z 2218/2318 06011KT P6SM VCSH SCT025 SCT040
     FM222000 05016G22KT P6SM FEW025 SCT040
     FM230500 05017G23KT P6SM VCSH SCT025 BKN045=

USA.gov is the U.S. government's official web portal to all federal, state and local government web resources and services.